createdAt,value
2018-07-11T00:04:24.029Z,13.30
2018-07-11T00:09:27.295Z,13.27
2018-07-11T00:14:30.563Z,12.17
2018-07-11T00:19:34.787Z,13.57
2018-07-11T00:24:37.793Z,11.63
2018-07-11T00:29:41.142Z,16.43
2018-07-11T00:34:44.414Z,13.07
2018-07-11T00:39:47.712Z,13.37
2018-07-11T00:44:50.719Z,12.53
2018-07-11T00:49:53.719Z,14.87
2018-07-11T00:54:56.999Z,13.10
2018-07-11T01:00:00.558Z,13.57
2018-07-11T01:05:03.844Z,9.13
2018-07-11T01:10:07.151Z,9.63
2018-07-11T01:15:10.446Z,12.07
2018-07-11T01:20:14.110Z,13.13
2018-07-11T01:25:17.402Z,12.23
2018-07-11T01:30:20.655Z,11.90
2018-07-11T01:35:23.936Z,10.20
2018-07-11T01:40:27.263Z,11.57
2018-07-11T01:45:30.541Z,11.70
2018-07-11T01:50:33.814Z,11.60
2018-07-11T01:55:37.085Z,10.90
2018-07-11T02:00:40.372Z,16.73
2018-07-11T02:05:43.734Z,16.70
2018-07-11T02:10:47.167Z,14.47
2018-07-11T02:15:50.183Z,15.93
2018-07-11T02:20:53.774Z,10.97
2018-07-11T02:25:57.111Z,13.67
2018-07-11T02:31:00.452Z,10.60
2018-07-11T02:36:03.483Z,13.70
2018-07-11T02:41:06.808Z,16.97
2018-07-11T02:46:10.145Z,18.00
2018-07-11T02:51:13.460Z,11.27
2018-07-11T02:56:17.251Z,9.97
2018-07-11T03:01:20.502Z,10.40
2018-07-11T03:06:23.899Z,13.67
2018-07-11T03:11:27.186Z,10.30
2018-07-11T03:16:30.446Z,10.60
2018-07-11T03:21:33.747Z,11.60
2018-07-11T03:26:37.034Z,9.87
2018-07-11T03:31:40.302Z,12.27
2018-07-11T03:36:43.589Z,15.33
2018-07-11T03:41:46.875Z,22.63
2018-07-11T03:46:50.146Z,21.10
2018-07-11T03:51:53.410Z,21.30
2018-07-11T03:56:56.684Z,17.83
2018-07-11T04:01:59.950Z,35.67
2018-07-11T04:07:03.219Z,18.03
2018-07-11T04:12:06.486Z,19.37
2018-07-11T04:17:13.599Z,18.93
2018-07-11T04:22:16.883Z,20.03
2018-07-11T04:27:20.256Z,34.10
2018-07-11T04:32:25.493Z,17.50
2018-07-11T04:37:29.289Z,44.33
2018-07-11T04:42:32.677Z,22.80
2018-07-11T04:47:36.004Z,17.47
2018-07-11T04:52:39.152Z,52.90
2018-07-11T04:57:42.435Z,23.37
2018-07-11T05:02:45.693Z,18.17
2018-07-11T05:07:48.977Z,22.60
2018-07-11T05:12:52.239Z,25.03
2018-07-11T05:17:55.519Z,19.83
2018-07-11T05:22:58.763Z,17.37
2018-07-11T05:28:02.317Z,18.33
2018-07-11T05:33:05.590Z,17.00
2018-07-11T05:38:08.865Z,14.93
2018-07-11T05:43:12.131Z,16.50
2018-07-11T05:48:15.490Z,12.33
2018-07-11T05:53:18.655Z,14.20
2018-07-11T05:58:21.919Z,10.83
2018-07-11T06:03:25.171Z,11.90
2018-07-11T06:08:28.463Z,11.53
2018-07-11T06:13:31.765Z,11.60
2018-07-11T06:18:35.029Z,17.13
2018-07-11T06:23:38.038Z,12.70
2018-07-11T06:28:41.272Z,10.50
2018-07-11T06:33:44.579Z,10.63
2018-07-11T06:38:47.808Z,11.33
2018-07-11T06:43:51.150Z,10.57
2018-07-11T06:48:54.425Z,13.30
2018-07-11T06:53:57.691Z,10.50
2018-07-11T06:59:00.950Z,11.27
2018-07-11T07:04:04.227Z,9.90
2018-07-11T07:09:07.814Z,9.30
2018-07-11T07:14:11.086Z,10.57
2018-07-11T07:19:14.339Z,8.83
2018-07-11T07:24:17.591Z,8.20
2018-07-11T07:29:20.850Z,8.23
2018-07-11T07:34:23.834Z,8.10
2018-07-11T07:39:28.713Z,7.80
2018-07-11T07:44:33.751Z,8.70
2018-07-11T07:49:36.765Z,8.53
2018-07-11T07:54:41.791Z,10.00
2018-07-11T07:59:46.718Z,9.10
2018-07-11T08:04:50.274Z,8.33
2018-07-11T08:09:53.293Z,10.07
2018-07-11T08:14:56.566Z,7.77
2018-07-11T08:19:59.868Z,8.03
2018-07-11T08:25:15.223Z,8.63
2018-07-11T08:30:31.544Z,11.17
2018-07-11T08:35:45.210Z,12.93
2018-07-11T08:44:06.426Z,10.03
2018-07-11T08:49:27.063Z,5.43
2018-07-11T08:54:41.765Z,2.87
2018-07-11T09:02:01.071Z,2.83
2018-07-11T09:07:25.239Z,4.10
2018-07-11T09:12:31.157Z,2.30
2018-07-11T09:17:45.652Z,2.10
2018-07-11T09:22:54.297Z,3.33
2018-07-11T09:27:57.550Z,3.23
2018-07-11T09:33:00.822Z,3.37
2018-07-11T09:38:03.833Z,4.33
2018-07-11T09:43:07.118Z,3.00
2018-07-11T09:48:10.407Z,3.37
2018-07-11T09:53:13.679Z,3.00
2018-07-11T09:58:16.987Z,2.53
2018-07-11T10:03:19.969Z,3.10
2018-07-11T10:08:23.230Z,1.40
2018-07-11T10:13:26.543Z,3.43
2018-07-11T10:18:29.821Z,2.97
2018-07-11T10:23:33.074Z,3.20
2018-07-11T10:28:37.339Z,1.50
2018-07-11T10:33:41.041Z,3.93
2018-07-11T10:38:44.598Z,4.50
2018-07-11T10:43:48.415Z,4.20
2018-07-11T10:48:51.428Z,7.30
2018-07-11T10:53:55.326Z,4.30
2018-07-11T10:58:58.594Z,8.37
2018-07-11T11:04:02.173Z,5.97
2018-07-11T11:09:06.000Z,4.43
2018-07-11T11:14:09.293Z,5.30
2018-07-11T11:19:12.578Z,4.97
2018-07-11T11:24:15.892Z,4.13
2018-07-11T11:29:19.188Z,4.50
2018-07-11T11:34:22.478Z,3.70
2018-07-11T11:39:25.772Z,4.43
2018-07-11T11:44:29.023Z,4.40
2018-07-11T11:49:32.330Z,4.13
2018-07-11T11:54:35.611Z,3.90
2018-07-11T11:59:38.903Z,4.73
2018-07-11T12:04:42.213Z,3.80
2018-07-11T12:09:45.221Z,4.73
2018-07-11T12:14:48.503Z,3.97
2018-07-11T12:19:51.774Z,6.30
2018-07-11T12:24:55.107Z,4.27
2018-07-11T12:29:58.408Z,3.97
2018-07-11T12:35:01.718Z,4.53
2018-07-11T12:40:05.098Z,4.20
2018-07-11T12:45:08.355Z,4.33
2018-07-11T12:50:11.622Z,3.30
2018-07-11T12:55:14.943Z,4.53
2018-07-11T13:00:18.399Z,3.70
2018-07-11T13:05:21.698Z,3.47
2018-07-11T13:10:24.999Z,3.00
2018-07-11T13:15:28.295Z,4.60
2018-07-11T13:20:31.592Z,3.87
2018-07-11T13:25:34.908Z,3.70
2018-07-11T13:30:38.311Z,3.70
2018-07-11T13:35:42.307Z,5.10
2018-07-11T13:40:45.848Z,4.43
2018-07-11T13:45:49.115Z,7.57
2018-07-11T13:50:52.589Z,5.53
2018-07-11T13:55:56.103Z,6.47
2018-07-11T14:00:59.481Z,5.77
2018-07-11T14:06:02.515Z,5.43
2018-07-11T14:11:06.051Z,4.80
2018-07-11T14:16:09.647Z,5.03
2018-07-11T14:21:13.214Z,5.20
2018-07-11T14:26:19.965Z,6.77
2018-07-11T14:31:30.959Z,5.87
2018-07-11T14:36:34.855Z,5.00
2018-07-11T14:41:38.488Z,5.80
2018-07-11T14:46:41.766Z,6.53
2018-07-11T14:51:45.249Z,6.63
2018-07-11T14:56:48.539Z,5.90
2018-07-11T15:01:53.561Z,5.63
2018-07-11T15:06:57.937Z,6.33
2018-07-11T15:12:02.853Z,4.73
2018-07-11T15:17:06.624Z,6.07
2018-07-11T15:22:10.534Z,6.13
2018-07-11T15:27:15.343Z,14.17
2018-07-11T15:32:18.923Z,6.40
2018-07-11T15:37:22.277Z,6.20
2018-07-11T15:42:26.096Z,7.30
2018-07-11T15:47:29.932Z,8.57
2018-07-11T15:52:33.305Z,7.50
2018-07-11T15:57:41.226Z,9.20
2018-07-11T16:02:46.108Z,9.87
2018-07-11T16:07:51.642Z,8.63
2018-07-11T16:12:55.045Z,10.27
2018-07-11T16:17:58.455Z,8.43
2018-07-11T16:23:02.298Z,5.47
2018-07-11T16:28:06.175Z,7.10
2018-07-11T16:33:09.447Z,5.83
2018-07-11T16:38:12.704Z,10.33
2018-07-11T16:43:15.971Z,6.37
2018-07-11T16:48:19.252Z,6.47
2018-07-11T16:53:22.623Z,10.67
2018-07-11T16:58:29.317Z,7.23
2018-07-11T17:03:35.066Z,7.80
2018-07-11T17:08:47.246Z,7.20
2018-07-11T17:13:56.539Z,5.83
2018-07-11T17:19:04.823Z,7.00
2018-07-11T17:24:09.194Z,8.40
2018-07-11T17:29:18.275Z,4.10
2018-07-11T17:34:22.203Z,5.03
2018-07-11T17:39:26.542Z,4.87
2018-07-11T17:44:30.303Z,3.87
2018-07-11T17:49:35.188Z,3.43
2018-07-11T17:54:43.692Z,3.37
2018-07-11T17:59:48.581Z,3.20
2018-07-11T18:05:02.935Z,5.27
2018-07-11T18:10:07.303Z,5.20
2018-07-11T18:15:23.884Z,4.10
2018-07-11T18:20:36.759Z,6.07
2018-07-11T18:26:47.836Z,3.97
2018-07-11T18:31:56.542Z,4.30
2018-07-11T18:38:08.870Z,2.70
2018-07-11T18:43:19.755Z,6.30
2018-07-11T18:50:39.132Z,2.67
2018-07-11T18:55:53.116Z,2.43
2018-07-11T19:02:03.449Z,5.10
2018-07-11T19:07:12.063Z,2.60
2018-07-11T19:12:27.036Z,3.40
2018-07-11T19:17:43.231Z,2.67
2018-07-11T19:22:57.044Z,2.77
2018-07-11T19:28:09.900Z,3.47
2018-07-11T19:33:35.520Z,2.90
2018-07-11T19:38:41.316Z,3.00
2018-07-11T19:43:52.851Z,2.53
2018-07-11T19:49:03.553Z,3.37
2018-07-11T19:54:17.412Z,2.70
2018-07-11T19:59:20.409Z,2.67
2018-07-11T20:04:23.677Z,3.90
2018-07-11T20:09:27.287Z,2.87
2018-07-11T20:14:30.872Z,3.57
2018-07-11T20:19:33.968Z,2.87
2018-07-11T20:24:37.233Z,4.13
2018-07-11T20:29:40.490Z,3.43
2018-07-11T20:34:44.546Z,3.40
2018-07-11T20:39:49.014Z,3.83
2018-07-11T20:44:52.989Z,5.07
2018-07-11T20:49:56.618Z,4.73
2018-07-11T20:55:01.888Z,3.17
2018-07-11T21:00:16.850Z,2.77
2018-07-11T21:05:35.626Z,4.57
2018-07-11T21:11:09.098Z,2.73
2018-07-11T21:16:24.940Z,2.70
2018-07-11T21:21:28.999Z,2.83
2018-07-11T21:26:33.408Z,5.37
2018-07-11T21:31:37.391Z,3.30
2018-07-11T21:36:40.483Z,3.00
2018-07-11T21:41:44.331Z,3.33
2018-07-11T21:46:49.968Z,3.67
2018-07-11T21:51:54.297Z,2.90
2018-07-11T21:56:58.382Z,3.20
2018-07-11T22:02:02.649Z,3.63
2018-07-11T22:07:05.988Z,2.57
2018-07-11T22:12:09.038Z,3.63
2018-07-11T22:17:24.048Z,2.90
2018-07-11T22:22:26.951Z,2.97
2018-07-11T22:27:29.217Z,4.37
2018-07-11T22:32:31.712Z,3.10
2018-07-11T22:37:34.196Z,3.80
2018-07-11T22:42:36.929Z,3.10
2018-07-11T22:47:39.154Z,3.37
2018-07-11T22:52:41.391Z,3.70
2018-07-11T22:57:43.735Z,3.50
2018-07-11T23:02:46.200Z,4.77
2018-07-11T23:07:48.438Z,3.87
2018-07-11T23:12:50.683Z,4.33
2018-07-11T23:17:52.956Z,5.00
2018-07-11T23:22:55.378Z,3.73
2018-07-11T23:27:57.637Z,3.00
2018-07-11T23:32:59.887Z,3.63
2018-07-11T23:38:02.682Z,3.60
2018-07-11T23:43:04.910Z,3.53
2018-07-11T23:48:07.166Z,4.17
2018-07-11T23:53:09.395Z,3.37
2018-07-11T23:58:11.634Z,3.77
